Time;durP1;ratioP1;P1;durP2;ratioP2;P2;SDS_P1;SDS_P2;PMS_P1;PMS_P2;Temp;Humidity;BMP_temperature;BMP_pressure;BME280_temperature;BME280_humidity;BME280_pressure;Samples;Min_cycle;Max_cycle;Signal;HPM_P1;HPM_P2
2022/01/22 00:00:21;;;;;;;17.38;2.22;;;7.00;99.90;;;;;;6249843;22;20451;-75
2022/01/22 00:02:47;;;;;;;9.27;1.83;;;7.00;99.90;;;;;;6277229;22;20016;-76
2022/01/22 00:05:14;;;;;;;16.23;4.00;;;7.00;99.90;;;;;;6276858;22;20020;-76
2022/01/22 00:07:40;;;;;;;9.65;1.92;;;7.00;99.90;;;;;;6249870;22;20016;-75
2022/01/22 00:10:13;;;;;;;9.30;1.73;;;7.00;99.90;;;;;;6249806;22;20019;-76
2022/01/22 00:15:09;;;;;;;8.73;1.00;;;7.00;99.90;;;;;;6277259;22;20027;-76
2022/01/22 00:17:35;;;;;;;16.02;2.50;;;6.90;99.90;;;;;;6249759;22;20367;-76
2022/01/22 00:20:05;;;;;;;22.95;2.75;;;6.90;99.90;;;;;;6249687;22;20130;-76
2022/01/22 00:22:33;;;;;;;15.07;1.70;;;6.90;99.90;;;;;;6249994;22;20058;-76
2022/01/22 00:25:01;;;;;;;11.75;2.15;;;6.80;99.90;;;;;;6249623;22;20028;-76
2022/01/22 00:27:28;;;;;;;16.90;3.63;;;6.90;99.90;;;;;;6249819;22;20023;-76
2022/01/22 00:29:55;;;;;;;12.25;1.52;;;6.80;99.90;;;;;;6249557;22;20050;-76
2022/01/22 00:32:21;;;;;;;16.77;2.40;;;6.90;99.90;;;;;;6249567;22;20023;-76
2022/01/22 00:34:47;;;;;;;10.57;1.15;;;6.90;99.90;;;;;;6249649;22;20343;-76
2022/01/22 00:37:12;;;;;;;11.38;2.03;;;6.80;99.90;;;;;;6276647;22;20446;-76
2022/01/22 00:39:38;;;;;;;9.68;1.27;;;6.80;99.90;;;;;;6277138;22;20022;-76
2022/01/22 00:42:12;;;;;;;10.00;1.42;;;6.90;99.90;;;;;;6249740;22;20019;-76
2022/01/22 00:44:38;;;;;;;19.65;2.95;;;6.80;99.90;;;;;;6249610;22;20016;-76
2022/01/22 00:47:05;;;;;;;13.32;2.15;;;6.80;99.90;;;;;;6249671;22;20050;-76
2022/01/22 00:49:31;;;;;;;13.65;1.98;;;6.80;99.90;;;;;;6249499;22;20090;-76
2022/01/22 00:51:57;;;;;;;8.35;1.27;;;6.80;99.90;;;;;;6276545;22;20016;-77
2022/01/22 00:54:23;;;;;;;13.32;1.52;;;6.80;99.90;;;;;;6250018;22;20019;-77
2022/01/22 00:56:48;;;;;;;12.57;2.20;;;6.80;99.90;;;;;;6251510;22;20007;-76
2022/01/22 00:59:14;;;;;;;10.93;1.95;;;6.80;99.90;;;;;;6251407;22;20086;-77
2022/01/22 01:01:40;;;;;;;7.50;1.63;;;6.80;99.90;;;;;;6252105;22;20146;-77
2022/01/22 01:04:08;;;;;;;12.68;2.13;;;6.70;99.90;;;;;;6251340;22;20016;-77
2022/01/22 01:06:34;;;;;;;17.70;2.03;;;6.70;99.90;;;;;;6251291;22;20062;-77
2022/01/22 01:09:02;;;;;;;16.50;2.75;;;6.70;99.90;;;;;;6251444;22;20023;-77
2022/01/22 01:11:31;;;;;;;10.90;1.27;;;6.70;99.90;;;;;;6251340;22;20012;-76
2022/01/22 01:14:00;;;;;;;10.90;2.03;;;6.70;99.90;;;;;;6251231;22;20466;-77
2022/01/22 01:17:24;;;;;;;17.23;2.25;;;6.70;99.90;;;;;;6251238;22;20039;-77
2022/01/22 01:35:26;;;;;;;14.07;1.38;;;6.60;99.90;;;;;;6251026;22;20075;-77
2022/01/22 01:37:54;;;;;;;15.68;1.90;;;6.60;99.90;;;;;;6251002;22;20355;-77
2022/01/22 01:40:23;;;;;;;8.48;1.15;;;6.60;99.90;;;;;;6251026;22;20023;-77
2022/01/22 01:43:03;;;;;;;11.32;1.45;;;6.70;99.90;;;;;;6250722;22;20011;-77
2022/01/22 01:45:28;;;;;;;12.75;1.42;;;6.70;99.90;;;;;;6251073;22;20065;-77
2022/01/22 01:48:03;;;;;;;12.55;1.75;;;6.60;99.90;;;;;;6250858;22;20023;-77
2022/01/22 01:50:31;;;;;;;19.45;3.42;;;6.70;99.90;;;;;;6251060;22;20016;-77
2022/01/22 01:53:12;;;;;;;15.07;1.67;;;6.70;99.90;;;;;;6250967;22;20019;-76
2022/01/22 01:58:18;;;;;;;14.73;1.70;;;6.60;99.90;;;;;;6250904;22;20525;-77
2022/01/22 02:00:44;;;;;;;10.63;1.63;;;6.60;99.90;;;;;;6250946;22;20075;-76
2022/01/22 02:03:12;;;;;;;8.57;1.10;;;6.60;99.90;;;;;;6250771;22;20027;-76
2022/01/22 02:05:38;;;;;;;11.68;1.33;;;6.60;99.90;;;;;;6250842;22;20081;-76
2022/01/22 02:08:05;;;;;;;10.18;1.20;;;6.60;99.90;;;;;;6250715;22;20012;-77
2022/01/22 02:10:35;;;;;;;7.38;1.10;;;6.60;99.90;;;;;;6250802;22;20396;-76
2022/01/22 02:13:45;;;;;;;7.40;1.10;;;6.70;99.90;;;;;;6278179;22;20086;-77
2022/01/22 02:24:00;;;;;;;14.35;1.73;;;6.60;99.90;;;;;;6250507;22;20102;-76
2022/01/22 02:26:28;;;;;;;10.60;1.77;;;6.60;99.90;;;;;;6250560;22;20070;-76
2022/01/22 02:28:53;;;;;;;11.55;1.52;;;6.50;99.90;;;;;;6277550;22;20023;-76
2022/01/22 02:36:28;;;;;;;7.60;1.08;;;6.60;99.90;;;;;;6250474;22;20100;-76
2022/01/22 02:39:03;;;;;;;29.40;2.40;;;6.60;99.90;;;;;;6250539;22;20023;-76
2022/01/22 02:41:29;;;;;;;6.35;0.93;;;6.60;99.90;;;;;;6250432;22;20018;-77
2022/01/22 02:43:55;;;;;;;5.18;1.15;;;6.60;99.90;;;;;;6250178;22;20024;-77
2022/01/22 02:46:28;;;;;;;13.45;1.73;;;6.60;99.90;;;;;;6250412;22;20019;-77
2022/01/22 02:48:55;;;;;;;11.93;1.30;;;6.50;99.90;;;;;;6250455;22;20015;-76
2022/01/22 02:51:26;;;;;;;9.93;1.33;;;6.50;99.90;;;;;;6250335;22;20020;-77
2022/01/22 02:53:54;;;;;;;10.43;1.33;;;6.50;99.90;;;;;;6277678;22;20015;-76
2022/01/22 02:56:22;;;;;;;8.90;1.40;;;6.50;99.90;;;;;;6250263;22;20371;-77
2022/01/22 02:58:49;;;;;;;14.85;2.35;;;6.50;99.90;;;;;;6250219;22;20011;-77
2022/01/22 03:01:16;;;;;;;10.68;1.67;;;6.50;99.90;;;;;;6250266;22;20020;-76
2022/01/22 03:03:42;;;;;;;16.27;1.83;;;6.50;99.90;;;;;;6250141;22;20024;-76
2022/01/22 03:06:08;;;;;;;14.10;1.55;;;6.40;99.90;;;;;;6250176;22;20024;-77
2022/01/22 03:08:35;;;;;;;11.98;1.92;;;6.50;99.90;;;;;;6250137;22;20073;-77
2022/01/22 03:11:05;;;;;;;12.40;1.50;;;6.50;99.90;;;;;;6277597;22;20015;-76
2022/01/22 03:16:11;;;;;;;10.63;1.15;;;6.50;99.90;;;;;;6250068;22;20027;-77
2022/01/22 03:18:51;;;;;;;9.18;1.20;;;6.50;99.90;;;;;;6250043;22;20090;-77
2022/01/22 03:29:31;;;;;;;5.90;0.93;;;6.50;99.90;;;;;;6277167;22;20478;-77
2022/01/22 03:31:57;;;;;;;12.10;1.02;;;6.50;99.90;;;;;;6249708;22;20343;-77
2022/01/22 03:34:22;;;;;;;20.00;1.63;;;6.50;99.90;;;;;;6250074;22;20027;-76
2022/01/22 03:36:48;;;;;;;8.18;1.20;;;6.60;99.90;;;;;;6249946;22;20015;-77
2022/01/22 03:39:14;;;;;;;6.35;0.70;;;6.60;99.90;;;;;;6250018;22;20445;-77
2022/01/22 03:41:40;;;;;;;8.20;1.00;;;6.60;99.90;;;;;;6249936;22;20047;-77
2022/01/22 03:44:06;;;;;;;3.05;0.88;;;6.60;99.90;;;;;;6249860;22;20058;-77
2022/01/22 03:46:33;;;;;;;6.47;0.75;;;6.60;99.90;;;;;;6249962;22;20020;-77
2022/01/22 03:48:59;;;;;;;11.82;0.80;;;6.70;99.90;;;;;;6249893;22;20082;-77
2022/01/22 03:51:24;;;;;;;8.13;1.00;;;6.60;99.90;;;;;;6249895;22;20047;-76
2022/01/22 03:53:50;;;;;;;13.05;1.02;;;6.60;99.90;;;;;;6277311;22;20332;-77
2022/01/22 03:56:16;;;;;;;11.10;1.45;;;6.60;99.90;;;;;;6276936;22;20012;-77
2022/01/22 03:58:44;;;;;;;7.20;1.42;;;6.60;99.90;;;;;;6249828;22;20450;-77
2022/01/22 04:03:41;;;;;;;10.93;1.60;;;6.50;99.90;;;;;;6249709;22;20451;-77
2022/01/22 04:08:52;;;;;;;17.75;1.60;;;6.50;99.90;;;;;;6276878;22;20478;-76
2022/01/22 04:11:18;;;;;;;16.05;2.30;;;6.40;99.90;;;;;;6249879;22;20016;-76
2022/01/22 04:13:46;;;;;;;13.07;1.33;;;6.40;99.90;;;;;;6249901;22;20130;-77
2022/01/22 04:16:14;;;;;;;12.80;1.60;;;6.40;99.90;;;;;;6249775;22;20083;-76
2022/01/22 04:26:54;;;;;;;14.40;2.00;;;6.30;99.90;;;;;;6249704;22;20027;-77
2022/01/22 04:29:22;;;;;;;7.88;1.05;;;6.30;99.90;;;;;;6277636;22;20022;-77
2022/01/22 04:31:47;;;;;;;15.65;1.90;;;6.30;99.90;;;;;;6278727;22;20065;-77
2022/01/22 04:34:13;;;;;;;16.63;2.53;;;6.30;99.90;;;;;;6251652;22;20386;-77
2022/01/22 04:36:39;;;;;;;16.10;2.35;;;6.30;99.90;;;;;;6251716;22;20010;-77
2022/01/22 04:39:05;;;;;;;14.18;1.95;;;6.30;99.90;;;;;;6251461;22;20422;-77
2022/01/22 04:41:31;;;;;;;11.20;1.00;;;6.40;99.90;;;;;;6251615;22;20448;-77
2022/01/22 04:44:01;;;;;;;8.38;0.93;;;6.40;99.90;;;;;;6251421;22;20321;-77
2022/01/22 04:52:26;;;;;;;10.93;1.13;;;6.40;99.90;;;;;;6251447;22;20438;-76
2022/01/22 04:57:27;;;;;;;11.20;1.60;;;6.40;99.90;;;;;;6251480;22;20042;-77
2022/01/22 04:59:53;;;;;;;9.40;2.03;;;6.40;99.90;;;;;;6251441;22;20019;-77
2022/01/22 05:02:19;;;;;;;17.13;2.00;;;6.40;99.90;;;;;;6251443;22;20339;-77
2022/01/22 05:04:44;;;;;;;16.98;1.50;;;6.40;99.90;;;;;;6251759;22;20027;-77
2022/01/22 05:07:10;;;;;;;11.55;1.40;;;6.40;99.90;;;;;;6251382;22;20024;-77
2022/01/22 05:09:36;;;;;;;12.98;1.48;;;6.40;99.90;;;;;;6251333;22;20019;-77
2022/01/22 05:12:04;;;;;;;12.00;1.63;;;6.30;99.90;;;;;;6251362;22;20042;-77
2022/01/22 05:14:30;;;;;;;8.23;1.13;;;6.30;99.90;;;;;;6251304;22;20023;-76
2022/01/22 05:16:56;;;;;;;18.48;3.25;;;6.30;99.90;;;;;;6251153;22;20016;-77
2022/01/22 05:20:08;;;;;;;14.50;1.45;;;6.30;99.90;;;;;;6251247;22;20447;-77
2022/01/22 05:24:54;;;;;;;14.40;1.52;;;6.40;99.90;;;;;;6251105;22;20103;-77
2022/01/22 05:27:36;;;;;;;11.75;1.80;;;6.40;99.90;;;;;;6251213;22;20042;-77
2022/01/22 05:33:13;;;;;;;9.27;1.30;;;6.40;99.90;;;;;;6195605;22;20025;-77
2022/01/22 05:38:12;;;;;;;5.28;0.77;;;6.40;99.90;;;;;;6251032;22;20027;-76
2022/01/22 05:40:38;;;;;;;7.18;0.80;;;6.40;99.90;;;;;;6250812;22;20107;-76
2022/01/22 05:43:05;;;;;;;4.30;1.20;;;6.40;99.90;;;;;;6250920;22;20039;-77
2022/01/22 05:45:31;;;;;;;6.18;0.85;;;6.40;99.90;;;;;;6250938;22;20335;-77
2022/01/22 05:47:56;;;;;;;9.35;1.20;;;6.40;99.90;;;;;;6251000;22;20091;-77
2022/01/22 05:51:05;;;;;;;7.82;1.10;;;6.30;99.90;;;;;;6277982;22;20012;-77
2022/01/22 06:01:11;;;;;;;6.03;1.25;;;6.30;99.90;;;;;;6250846;22;20073;-77
2022/01/22 06:03:37;;;;;;;2.30;0.70;;;6.30;99.90;;;;;;6277862;22;20015;-77
2022/01/22 06:06:03;;;;;;;2.50;0.50;;;6.30;99.90;;;;;;6277924;22;20031;-77
2022/01/22 06:08:34;;;;;;;6.95;0.90;;;6.30;99.90;;;;;;6250783;22;20016;-77
2022/01/22 06:11:08;;;;;;;3.25;0.38;;;6.30;99.90;;;;;;6250754;22;20023;-77
2022/01/22 06:13:44;;;;;;;5.53;0.40;;;6.30;99.90;;;;;;6250766;22;20047;-77
2022/01/22 06:16:15;;;;;;;4.30;0.98;;;6.30;99.90;;;;;;6278188;22;20012;-77
2022/01/22 06:18:41;;;;;;;7.10;0.70;;;6.30;99.90;;;;;;6250976;22;20023;-77
2022/01/22 06:21:10;;;;;;;10.35;1.00;;;6.30;99.90;;;;;;6250584;22;20474;-76
2022/01/22 06:23:40;;;;;;;5.18;0.98;;;6.30;99.90;;;;;;6250527;22;20502;-77
2022/01/22 06:26:07;;;;;;;6.90;1.10;;;6.20;99.90;;;;;;6250564;22;20053;-76
2022/01/22 06:28:34;;;;;;;8.20;1.50;;;6.20;99.90;;;;;;6250519;22;20503;-76
2022/01/22 06:31:01;;;;;;;11.00;2.22;;;6.20;99.90;;;;;;6250300;22;20048;-77
2022/01/22 06:33:26;;;;;;;5.90;1.80;;;6.20;99.90;;;;;;6250512;22;20047;-77
2022/01/22 06:35:53;;;;;;;13.07;1.33;;;6.20;99.90;;;;;;6250439;22;20032;-77
2022/01/22 06:38:19;;;;;;;12.27;1.63;;;6.20;99.90;;;;;;6250417;22;20016;-77
2022/01/22 06:43:30;;;;;;;6.40;1.15;;;6.30;99.90;;;;;;6250259;22;20470;-77
2022/01/22 06:45:56;;;;;;;9.13;1.50;;;6.30;99.90;;;;;;6250414;22;20020;-77
2022/01/22 06:48:22;;;;;;;5.05;0.93;;;6.20;99.90;;;;;;6250407;22;20019;-76
2022/01/22 06:50:48;;;;;;;9.20;1.40;;;6.20;99.90;;;;;;6250330;22;20016;-77
2022/01/22 06:53:13;;;;;;;15.35;2.05;;;6.20;99.90;;;;;;6249948;22;20367;-77
2022/01/22 06:55:44;;;;;;;9.00;1.40;;;6.20;99.90;;;;;;6250363;22;20517;-77
2022/01/22 06:58:10;;;;;;;10.30;1.40;;;6.20;99.90;;;;;;6250355;22;20011;-77
2022/01/22 07:00:36;;;;;;;6.78;0.80;;;6.20;99.90;;;;;;6250364;22;20027;-77
2022/01/22 07:03:02;;;;;;;3.40;0.60;;;6.20;99.90;;;;;;6277318;22;20352;-77
2022/01/22 07:05:28;;;;;;;4.30;0.70;;;6.20;99.90;;;;;;6250172;22;20343;-76
2022/01/22 07:07:54;;;;;;;8.43;2.15;;;6.20;99.90;;;;;;6250215;22;20016;-77
2022/01/22 07:10:20;;;;;;;12.95;2.08;;;6.10;99.90;;;;;;6250176;22;20378;-77
2022/01/22 07:12:45;;;;;;;7.32;0.98;;;6.10;99.90;;;;;;6250106;22;20035;-77
2022/01/22 07:15:11;;;;;;;6.38;0.80;;;6.10;99.90;;;;;;6277583;22;20062;-76
2022/01/22 07:17:39;;;;;;;9.48;1.15;;;6.10;99.90;;;;;;6250100;22;20007;-77
2022/01/22 07:20:13;;;;;;;11.55;1.17;;;6.10;99.90;;;;;;6250059;22;20020;-77
2022/01/22 07:22:49;;;;;;;12.02;1.30;;;6.10;99.90;;;;;;6250120;22;20015;-77
2022/01/22 07:25:16;;;;;;;3.75;0.70;;;6.00;99.90;;;;;;6250029;22;20016;-77
2022/01/22 07:27:42;;;;;;;5.03;0.80;;;6.10;99.90;;;;;;6250033;22;20095;-76
2022/01/22 07:30:08;;;;;;;7.88;1.05;;;6.10;99.90;;;;;;6249966;22;20055;-76
2022/01/22 07:32:37;;;;;;;11.00;1.02;;;6.10;99.90;;;;;;6249892;22;20047;-77
2022/01/22 07:35:06;;;;;;;13.85;1.90;;;6.10;99.90;;;;;;6250380;22;20459;-76
2022/01/22 07:37:31;;;;;;;9.70;1.08;;;6.20;99.90;;;;;;6249931;22;20020;-76
2022/01/22 07:39:58;;;;;;;12.15;1.40;;;6.20;99.90;;;;;;6249711;22;20008;-76
2022/01/22 07:42:23;;;;;;;9.13;1.38;;;6.20;99.90;;;;;;6249725;22;20025;-76
2022/01/22 07:44:49;;;;;;;8.02;1.10;;;6.30;99.90;;;;;;6276591;22;20016;-77
2022/01/22 07:47:15;;;;;;;8.43;1.35;;;6.30;99.90;;;;;;6249272;22;20012;-76
2022/01/22 07:49:41;;;;;;;10.02;1.20;;;6.20;99.90;;;;;;6248611;22;20024;-77
2022/01/22 07:52:07;;;;;;;15.02;1.88;;;6.20;99.90;;;;;;6275446;22;20028;-77
2022/01/22 07:54:33;;;;;;;14.88;2.83;;;6.30;99.90;;;;;;6277085;22;20024;-76
2022/01/22 07:57:02;;;;;;;10.80;1.50;;;6.30;99.90;;;;;;6277215;22;20039;-76
2022/01/22 07:59:28;;;;;;;13.07;2.55;;;6.30;99.90;;;;;;6249808;22;20347;-77
2022/01/22 08:01:53;;;;;;;9.68;1.45;;;6.30;99.90;;;;;;6277810;22;20027;-77
2022/01/22 08:04:25;;;;;;;13.48;2.00;;;6.30;99.90;;;;;;6250902;22;20351;-77
2022/01/22 08:06:53;;;;;;;8.97;1.57;;;6.30;99.90;;;;;;6252849;22;20020;-77
2022/01/22 08:09:19;;;;;;;13.85;2.63;;;6.30;99.90;;;;;;6251883;22;20024;-77
2022/01/22 08:11:48;;;;;;;10.32;1.40;;;6.30;99.90;;;;;;6279224;22;20031;-77
2022/01/22 08:14:14;;;;;;;13.40;2.30;;;6.40;99.90;;;;;;6251757;22;20011;-77
2022/01/22 08:16:40;;;;;;;12.07;2.65;;;6.30;99.90;;;;;;6278725;22;20305;-77
2022/01/22 08:19:06;;;;;;;14.40;1.92;;;6.30;99.90;;;;;;6278805;22;20355;-77
2022/01/22 08:21:32;;;;;;;10.30;1.30;;;6.30;99.90;;;;;;6251655;22;20435;-77
2022/01/22 08:23:58;;;;;;;14.75;3.22;;;6.30;99.90;;;;;;6279078;22;20439;-77
2022/01/22 08:26:28;;;;;;;15.23;3.10;;;6.30;99.90;;;;;;6278785;22;20102;-77
2022/01/22 08:28:54;;;;;;;15.93;2.90;;;6.40;99.90;;;;;;6251725;22;20027;-78
2022/01/22 08:36:41;;;;;;;12.48;1.88;;;6.40;99.90;;;;;;6251673;22;20020;-76
2022/01/22 08:39:07;;;;;;;11.00;1.88;;;6.40;99.90;;;;;;6251330;22;20424;-77
2022/01/22 08:41:33;;;;;;;12.50;1.60;;;6.40;99.90;;;;;;6251315;22;20026;-76
2022/01/22 08:44:00;;;;;;;14.27;1.95;;;6.40;99.90;;;;;;6251067;22;20015;-77
2022/01/22 08:46:27;;;;;;;14.57;2.15;;;6.40;99.90;;;;;;6251179;22;20020;-77
2022/01/22 08:48:53;;;;;;;11.25;1.90;;;6.40;99.90;;;;;;6251328;22;20043;-77
2022/01/22 08:51:19;;;;;;;13.35;2.55;;;6.40;99.90;;;;;;6251164;22;20020;-76
2022/01/22 08:53:46;;;;;;;14.93;1.42;;;6.40;99.90;;;;;;6251085;22;20022;-76
2022/01/22 08:56:12;;;;;;;18.58;1.98;;;6.30;99.90;;;;;;6251141;22;20020;-76
2022/01/22 08:58:38;;;;;;;13.10;2.33;;;6.40;99.90;;;;;;6278536;22;20020;-76
2022/01/22 09:01:04;;;;;;;17.50;2.40;;;6.40;99.90;;;;;;6251077;22;20015;-76
2022/01/22 09:03:30;;;;;;;15.13;2.45;;;6.40;99.90;;;;;;6278084;22;20027;-76
2022/01/22 09:05:56;;;;;;;7.95;2.10;;;6.40;99.90;;;;;;6251229;22;20339;-76
2022/01/22 09:08:24;;;;;;;11.98;2.38;;;6.50;99.90;;;;;;6278380;22;20019;-76
2022/01/22 09:10:50;;;;;;;8.40;1.77;;;6.50;99.90;;;;;;6278139;22;20020;-76
2022/01/22 09:13:17;;;;;;;10.20;1.70;;;6.50;99.90;;;;;;6251297;22;20018;-76
2022/01/22 09:15:42;;;;;;;11.32;1.80;;;6.60;99.90;;;;;;6278132;22;20046;-76
2022/01/22 09:18:09;;;;;;;9.80;1.73;;;6.50;99.90;;;;;;6251160;22;20023;-78
2022/01/22 09:23:06;;;;;;;7.07;1.70;;;6.60;99.90;;;;;;6250701;22;20031;-76
2022/01/22 09:25:32;;;;;;;11.32;2.38;;;6.60;99.90;;;;;;6277898;22;20440;-77
2022/01/22 09:27:57;;;;;;;12.07;1.80;;;6.60;99.90;;;;;;6278286;22;20023;-77
2022/01/22 09:30:23;;;;;;;9.15;2.10;;;6.60;99.90;;;;;;6250565;22;20442;-78
2022/01/22 09:32:49;;;;;;;10.52;1.73;;;6.60;99.90;;;;;;6277621;22;20012;-77
2022/01/22 09:35:15;;;;;;;10.70;2.58;;;6.50;99.90;;;;;;6277890;22;20022;-77
2022/01/22 09:37:41;;;;;;;9.98;1.45;;;6.50;99.90;;;;;;6250768;22;20077;-77
2022/01/22 09:40:08;;;;;;;9.38;1.63;;;6.40;99.90;;;;;;6251062;22;20019;-77
2022/01/22 09:42:34;;;;;;;7.90;1.42;;;6.50;99.90;;;;;;6250742;22;20359;-76
2022/01/22 09:45:01;;;;;;;9.38;2.22;;;6.50;99.90;;;;;;6250645;22;20101;-76
2022/01/22 09:47:27;;;;;;;14.82;2.00;;;6.40;99.90;;;;;;6278203;22;20061;-76
2022/01/22 09:49:53;;;;;;;13.65;1.88;;;6.40;99.90;;;;;;6250591;22;20019;-75
2022/01/22 09:52:19;;;;;;;15.20;2.28;;;6.50;99.90;;;;;;6251087;22;20019;-76
2022/01/22 09:54:45;;;;;;;13.27;2.00;;;6.40;99.90;;;;;;6250509;22;20020;-76
2022/01/22 09:57:12;;;;;;;14.77;2.78;;;6.50;99.90;;;;;;6277892;22;20050;-76
2022/01/22 09:59:38;;;;;;;18.75;3.60;;;6.50;99.90;;;;;;6250472;22;20027;-76
2022/01/22 10:02:13;;;;;;;15.70;3.58;;;6.50;99.90;;;;;;6250669;22;20348;-76
2022/01/22 10:04:42;;;;;;;13.90;3.15;;;6.50;99.90;;;;;;6250422;22;20109;-75
2022/01/22 10:07:20;;;;;;;12.38;2.70;;;6.40;99.90;;;;;;6250436;22;20026;-77
2022/01/22 10:09:57;;;;;;;13.30;2.83;;;6.50;99.90;;;;;;6250422;22;20094;-77
2022/01/22 10:12:25;;;;;;;16.92;2.28;;;6.50;99.90;;;;;;6250392;22;20081;-75
2022/01/22 10:15:11;;;;;;;17.13;3.50;;;6.50;99.90;;;;;;6277477;22;20051;-78
2022/01/22 10:17:47;;;;;;;13.63;2.80;;;6.50;99.90;;;;;;6250161;22;20078;-78
2022/01/22 10:20:23;;;;;;;17.85;3.85;;;6.50;99.90;;;;;;6250567;22;20020;-77
2022/01/22 10:22:54;;;;;;;10.43;2.22;;;6.60;99.90;;;;;;6250464;22;20079;-78
2022/01/22 10:25:27;;;;;;;9.75;2.70;;;6.60;99.90;;;;;;6249178;22;20529;-78
2022/01/22 10:28:18;;;;;;;10.75;2.20;;;6.60;99.90;;;;;;6248812;22;20016;-78
2022/01/22 10:30:45;;;;;;;8.23;2.33;;;6.60;99.90;;;;;;6250274;22;20363;-78
2022/01/22 10:35:49;;;;;;;11.20;1.80;;;6.70;99.90;;;;;;6248670;22;20031;-78
2022/01/22 10:38:17;;;;;;;8.98;1.60;;;6.60;99.90;;;;;;6250247;22;20026;-78
2022/01/22 10:40:44;;;;;;;9.50;1.70;;;6.60;99.90;;;;;;6250429;22;20023;-78
2022/01/22 10:43:32;;;;;;;9.32;2.05;;;6.70;99.90;;;;;;6250325;22;20038;-78
2022/01/22 10:46:07;;;;;;;12.02;2.47;;;6.70;99.90;;;;;;6250279;22;20026;-78
2022/01/22 10:48:33;;;;;;;20.52;4.20;;;6.70;99.90;;;;;;6249776;22;20444;-77
2022/01/22 10:51:01;;;;;;;25.17;5.22;;;6.70;99.90;;;;;;6250150;22;20030;-78
2022/01/22 10:53:43;;;;;;;19.83;3.20;;;6.70;99.90;;;;;;6250168;22;20043;-78
2022/01/22 10:56:11;;;;;;;19.30;3.80;;;6.70;99.90;;;;;;6277616;22;20016;-78
2022/01/22 10:58:55;;;;;;;18.65;3.22;;;6.80;99.90;;;;;;6250112;22;20015;-78
2022/01/22 11:01:22;;;;;;;22.48;3.53;;;6.70;99.90;;;;;;6250190;22;20343;-78
2022/01/22 11:04:00;;;;;;;22.73;3.08;;;6.80;99.90;;;;;;6250068;22;20335;-78
2022/01/22 11:06:27;;;;;;;17.45;3.60;;;6.80;99.90;;;;;;6250034;22;20019;-79
2022/01/22 11:08:55;;;;;;;9.80;2.85;;;6.80;99.90;;;;;;6250105;22;20087;-78
2022/01/22 11:11:24;;;;;;;12.93;3.33;;;6.90;99.90;;;;;;6276805;22;20506;-78
2022/01/22 11:13:50;;;;;;;24.02;5.03;;;6.90;99.90;;;;;;6249902;22;20436;-77
2022/01/22 11:16:18;;;;;;;15.75;3.42;;;6.90;99.90;;;;;;6250027;22;20390;-77
2022/01/22 11:18:51;;;;;;;14.32;3.45;;;6.90;99.90;;;;;;6277082;22;20452;-77
2022/01/22 11:21:17;;;;;;;12.77;4.72;;;6.90;99.90;;;;;;6276933;22;20509;-78
2022/01/22 11:23:46;;;;;;;14.05;3.25;;;6.90;99.90;;;;;;6249827;22;20015;-78
2022/01/22 11:26:14;;;;;;;18.95;2.97;;;6.90;99.90;;;;;;6249896;22;20051;-78
2022/01/22 11:28:40;;;;;;;16.52;2.90;;;6.90;99.90;;;;;;6250020;22;20019;-78
2022/01/22 11:31:08;;;;;;;12.25;3.20;;;6.90;99.90;;;;;;6249440;22;20026;-78
2022/01/22 11:33:38;;;;;;;18.45;3.55;;;6.90;99.90;;;;;;6276812;22;20030;-78
2022/01/22 11:36:35;;;;;;;18.55;3.15;;;6.90;99.90;;;;;;6249102;22;20469;-78
2022/01/22 11:39:03;;;;;;;9.68;3.10;;;7.00;99.90;;;;;;6248272;22;20499;-78
2022/01/22 11:41:29;;;;;;;13.15;2.95;;;6.90;99.90;;;;;;6275530;22;20047;-78
2022/01/22 11:44:10;;;;;;;9.13;2.55;;;6.90;99.90;;;;;;6248273;22;20019;-78
2022/01/22 11:46:43;;;;;;;12.45;2.80;;;6.90;99.90;;;;;;6275513;22;20347;-78
2022/01/22 11:49:16;;;;;;;15.40;2.78;;;6.90;99.90;;;;;;6248472;22;20024;-78
2022/01/22 11:51:45;;;;;;;15.80;3.42;;;6.90;99.90;;;;;;6248500;22;20015;-78
2022/01/22 11:54:11;;;;;;;11.90;3.42;;;7.00;99.90;;;;;;6247912;22;20498;-78
2022/01/22 11:56:52;;;;;;;22.45;2.95;;;7.00;99.90;;;;;;6274610;22;20019;-78
2022/01/22 11:59:17;;;;;;;13.35;2.53;;;7.00;99.90;;;;;;6247935;22;20081;-79
2022/01/22 12:01:45;;;;;;;11.95;2.15;;;7.10;99.90;;;;;;6276735;22;20027;-78
2022/01/22 12:04:14;;;;;;;22.98;2.15;;;7.10;99.90;;;;;;6249693;22;20024;-83
2022/01/22 12:07:00;;;;;;;10.00;2.05;;;7.10;99.90;;;;;;6249787;22;20024;-84
2022/01/22 12:09:43;;;;;;;15.23;2.33;;;7.10;99.90;;;;;;6255527;22;20054;-83
2022/01/22 12:15:42;;;;;;;16.30;4.22;;;7.00;99.90;;;;;;6276800;22;20150;-83
2022/01/22 12:18:15;;;;;;;15.07;3.53;;;7.00;99.90;;;;;;6276830;22;20046;-84
2022/01/22 12:23:29;;;;;;;7.75;2.38;;;7.00;99.90;;;;;;6276699;22;20069;-83
2022/01/22 12:25:56;;;;;;;7.65;2.38;;;6.90;99.90;;;;;;6249731;22;20095;-85
2022/01/22 12:28:41;;;;;;;10.07;2.90;;;7.00;99.90;;;;;;6277085;22;20012;-84
2022/01/22 12:31:08;;;;;;;10.98;1.70;;;7.00;99.90;;;;;;6276626;22;20024;-82
2022/01/22 12:33:34;;;;;;;8.43;2.17;;;7.00;99.90;;;;;;6276753;22;20024;-85
2022/01/22 12:36:03;;;;;;;11.40;2.15;;;7.00;99.90;;;;;;6249510;22;20024;-83
2022/01/22 12:39:06;;;;;;;9.60;2.38;;;7.00;99.90;;;;;;6276463;22;20443;-82
2022/01/22 12:44:09;;;;;;;11.27;2.75;;;6.90;99.90;;;;;;6249612;22;20407;-81
2022/01/22 12:46:36;;;;;;;13.02;3.55;;;6.90;99.90;;;;;;6249454;22;20086;-80
2022/01/22 12:49:04;;;;;;;16.52;4.97;;;6.80;99.90;;;;;;6249323;22;20495;-81
2022/01/22 12:51:31;;;;;;;20.98;5.25;;;6.90;99.90;;;;;;6278129;22;20066;-82
2022/01/22 12:53:57;;;;;;;12.25;4.22;;;6.90;99.90;;;;;;6251069;22;20026;-82
2022/01/22 12:59:08;;;;;;;11.13;3.67;;;6.90;99.90;;;;;;6251265;22;20030;-78
2022/01/22 13:01:35;;;;;;;19.95;4.00;;;6.90;99.90;;;;;;6251242;22;20442;-82
2022/01/22 13:04:04;;;;;;;19.05;3.92;;;6.80;99.90;;;;;;6251115;22;20019;-82
2022/01/22 13:06:43;;;;;;;15.20;3.83;;;6.80;99.90;;;;;;6251029;22;20455;-82
2022/01/22 13:09:11;;;;;;;10.18;3.70;;;6.70;99.90;;;;;;6251204;22;20016;-84
2022/01/22 13:11:46;;;;;;;10.90;2.58;;;6.70;99.90;;;;;;6251213;22;20015;-83
2022/01/22 13:14:15;;;;;;;11.52;2.50;;;6.70;99.90;;;;;;6251181;22;20091;-81
2022/01/22 13:16:52;;;;;;;12.80;2.45;;;6.70;99.90;;;;;;6251048;22;20320;-83
2022/01/22 13:19:20;;;;;;;9.02;1.77;;;6.80;99.90;;;;;;6251212;22;20020;-82
2022/01/22 13:21:55;;;;;;;12.20;3.65;;;6.70;99.90;;;;;;6278457;22;20087;-83
2022/01/22 13:24:25;;;;;;;16.60;2.95;;;6.70;99.90;;;;;;6250961;22;20077;-78
2022/01/22 13:29:34;;;;;;;12.10;1.98;;;6.70;99.90;;;;;;6278070;22;20513;-78
2022/01/22 13:32:10;;;;;;;10.93;2.42;;;6.70;99.90;;;;;;6250718;22;20030;-78
2022/01/22 13:49:32;;;;;;;4.22;1.38;;;6.70;99.90;;;;;;6249485;22;20057;-85
2022/01/22 13:52:02;;;;;;;8.20;1.77;;;6.70;99.90;;;;;;6249727;22;20054;-80
2022/01/22 13:54:42;;;;;;;5.25;1.00;;;6.70;99.90;;;;;;6250758;22;20058;-80
2022/01/22 13:57:16;;;;;;;8.57;1.48;;;6.70;99.90;;;;;;6250776;22;20343;-81
2022/01/22 13:59:47;;;;;;;8.20;1.08;;;6.70;99.90;;;;;;6277937;22;20336;-84
2022/01/22 14:03:04;;;;;;;11.00;1.52;;;6.70;99.90;;;;;;6250745;22;20028;-82
2022/01/22 14:05:31;;;;;;;6.15;2.25;;;6.70;99.90;;;;;;6250594;22;20019;-85
2022/01/22 14:08:07;;;;;;;5.22;1.00;;;6.70;99.90;;;;;;6278063;22;20062;-83
2022/01/22 14:10:34;;;;;;;7.20;1.30;;;6.70;99.90;;;;;;6250618;22;20019;-83
2022/01/22 14:13:07;;;;;;;10.18;1.63;;;6.60;99.90;;;;;;6250541;22;20043;-84
2022/01/22 14:15:34;;;;;;;;;;;6.60;99.90;;;;;;6251093;22;20069;-88
2022/01/22 14:18:09;;;;;;;9.43;1.45;;;6.50;99.90;;;;;;6277717;22;19915;-86
2022/01/22 14:20:37;;;;;;;11.98;2.40;;;6.40;99.90;;;;;;6250585;22;20020;-80
2022/01/22 14:23:06;;;;;;;12.00;2.20;;;6.40;99.90;;;;;;6250566;22;20099;-84
2022/01/22 14:26:02;;;;;;;8.98;1.35;;;6.50;99.90;;;;;;6250304;22;20016;-78
2022/01/22 14:28:45;;;;;;;8.10;1.60;;;6.40;99.90;;;;;;6250428;22;20110;-81
2022/01/22 14:31:22;;;;;;;7.75;1.30;;;6.50;99.90;;;;;;6250295;22;20027;-83
2022/01/22 14:33:48;;;;;;;15.90;1.50;;;6.50;99.90;;;;;;6250403;22;20103;-77
2022/01/22 14:36:23;;;;;;;10.93;1.75;;;6.50;99.90;;;;;;6250483;22;20403;-78
2022/01/22 14:38:55;;;;;;;8.30;1.95;;;6.50;99.90;;;;;;6250414;22;20024;-84
2022/01/22 14:46:53;;;;;;;5.18;1.30;;;6.50;99.90;;;;;;6250179;22;20486;-83
2022/01/22 14:49:38;;;;;;;6.50;1.40;;;6.40;99.90;;;;;;6250162;22;20012;-83
2022/01/22 14:52:05;;;;;;;4.93;1.30;;;6.40;99.90;;;;;;6250210;22;20027;-85
2022/01/22 14:54:40;;;;;;;8.02;1.30;;;6.40;99.90;;;;;;6250127;22;20015;-85
2022/01/22 14:57:07;;;;;;;4.57;1.35;;;6.40;99.90;;;;;;6250257;22;20470;-86
2022/01/22 14:59:34;;;;;;;11.00;1.42;;;6.40;99.90;;;;;;6250174;22;20023;-81
2022/01/22 15:02:01;;;;;;;6.00;1.25;;;6.40;99.90;;;;;;6250127;22;20083;-82
2022/01/22 15:04:27;;;;;;;12.77;1.73;;;6.40;99.90;;;;;;6250044;22;20050;-82
2022/01/22 15:06:54;;;;;;;9.52;1.67;;;6.40;99.90;;;;;;6277547;22;20012;-83
2022/01/22 15:09:20;;;;;;;8.10;2.33;;;6.30;99.90;;;;;;6250140;22;20023;-88
2022/01/22 15:11:45;;;;;;;6.35;1.38;;;6.30;99.90;;;;;;6250011;22;20012;-80